Time;durP1;ratioP1;P1;durP2;ratioP2;P2;SDS_P1;SDS_P2;PMS_P1;PMS_P2;Temp;Humidity;BMP_temperature;BMP_pressure;BME280_temperature;BME280_humidity;BME280_pressure;Samples;Min_cycle;Max_cycle;Signal;HPM_P1;HPM_P2
2021/01/20 00:02:05;;;;;;;1.73;1.53;;;;;;;;;;5077975;28;20194;-65
2021/01/20 00:04:31;;;;;;;1.93;1.77;;;;;;;;;;5093563;28;20071;-65
2021/01/20 00:06:56;;;;;;;2.17;1.97;;;;;;;;;;5093323;28;20035;-65
2021/01/20 00:09:21;;;;;;;2.23;1.40;;;;;;;;;;5089253;28;20024;-64
2021/01/20 00:11:46;;;;;;;1.57;1.43;;;;;;;;;;5094639;28;20024;-66
2021/01/20 00:14:15;;;;;;;2.17;2.00;;;;;;;;;;5093435;28;20024;-65
2021/01/20 00:16:41;;;;;;;2.33;1.60;;;;;;;;;;5094171;28;20071;-65
2021/01/20 00:19:06;;;;;;;2.17;1.63;;;;;;;;;;5091846;28;20051;-65
2021/01/20 00:21:31;;;;;;;1.80;1.70;;;;;;;;;;5092713;28;20035;-65
2021/01/20 00:23:56;;;;;;;2.23;1.50;;;;;;;;;;5094212;28;20463;-65
2021/01/20 00:26:22;;;;;;;1.73;1.30;;;;;;;;;;5093716;28;20028;-65
2021/01/20 00:28:48;;;;;;;1.70;1.10;;;;;;;;;;5091263;28;20038;-65
2021/01/20 00:31:13;;;;;;;1.40;1.20;;;;;;;;;;5093177;28;20099;-65
2021/01/20 00:33:38;;;;;;;2.00;1.03;;;;;;;;;;5094311;28;20184;-65
2021/01/20 00:36:03;;;;;;;2.97;0.70;;;;;;;;;;5094147;28;20137;-65
2021/01/20 00:38:29;;;;;;;1.17;0.67;;;;;;;;;;5092029;28;20027;-65
2021/01/20 00:40:54;;;;;;;2.17;0.53;;;;;;;;;;5092860;28;20486;-66
2021/01/20 00:43:19;;;;;;;1.03;0.40;;;;;;;;;;5094315;28;20374;-66
2021/01/20 00:45:44;;;;;;;2.10;0.60;;;;;;;;;;5094466;28;20031;-65
2021/01/20 00:48:10;;;;;;;1.17;0.57;;;;;;;;;;5090633;28;20019;-64
2021/01/20 00:50:35;;;;;;;2.03;0.50;;;;;;;;;;5086833;28;20015;-65
2021/01/20 00:53:01;;;;;;;2.93;0.87;;;;;;;;;;5092305;28;20085;-65
2021/01/20 00:55:26;;;;;;;0.53;0.40;;;;;;;;;;5093603;28;20011;-64
2021/01/20 00:57:51;;;;;;;1.60;0.30;;;;;;;;;;5094128;28;20404;-65
2021/01/20 01:00:16;;;;;;;0.80;0.40;;;;;;;;;;5089271;28;20486;-65
2021/01/20 01:02:41;;;;;;;0.90;0.37;;;;;;;;;;5094136;28;20024;-65
2021/01/20 01:05:07;;;;;;;1.30;0.40;;;;;;;;;;5093968;28;20024;-65
2021/01/20 01:07:32;;;;;;;1.00;0.60;;;;;;;;;;5090461;28;20054;-66
2021/01/20 01:09:57;;;;;;;1.50;0.50;;;;;;;;;;5090617;28;20020;-65
2021/01/20 01:12:23;;;;;;;1.10;0.33;;;;;;;;;;5092733;28;20039;-65
2021/01/20 01:14:48;;;;;;;1.47;0.40;;;;;;;;;;5092521;28;20024;-65
2021/01/20 01:17:13;;;;;;;1.07;0.37;;;;;;;;;;5092013;28;20036;-65
2021/01/20 01:19:38;;;;;;;2.50;0.57;;;;;;;;;;5090496;28;20032;-66
2021/01/20 01:22:04;;;;;;;3.40;0.30;;;;;;;;;;5092124;28;20031;-65
2021/01/20 01:24:29;;;;;;;0.93;0.10;;;;;;;;;;5091298;28;20020;-65
2021/01/20 01:26:54;;;;;;;1.17;0.47;;;;;;;;;;5093116;28;20819;-65
2021/01/20 01:29:19;;;;;;;0.80;0.33;;;;;;;;;;5088962;28;20483;-66
2021/01/20 01:31:44;;;;;;;1.13;0.20;;;;;;;;;;5093364;28;20031;-65
2021/01/20 01:34:10;;;;;;;1.47;0.30;;;;;;;;;;5092308;28;20020;-65
2021/01/20 01:36:35;;;;;;;1.33;0.30;;;;;;;;;;5091304;28;20069;-65
2021/01/20 01:39:00;;;;;;;1.67;0.37;;;;;;;;;;5089915;28;20024;-66
2021/01/20 01:41:25;;;;;;;1.00;0.37;;;;;;;;;;5091679;28;20032;-66
2021/01/20 01:43:51;;;;;;;0.73;0.23;;;;;;;;;;5093410;28;20073;-65
2021/01/20 01:46:16;;;;;;;1.73;0.30;;;;;;;;;;5093122;28;20046;-65
2021/01/20 01:48:41;;;;;;;1.13;0.20;;;;;;;;;;5089405;28;20020;-66
2021/01/20 01:51:06;;;;;;;1.10;0.40;;;;;;;;;;5091155;28;20271;-65
2021/01/20 01:53:31;;;;;;;0.40;0.30;;;;;;;;;;5092343;28;20035;-65
2021/01/20 01:55:57;;;;;;;1.07;0.43;;;;;;;;;;5091274;28;20112;-65
2021/01/20 01:58:22;;;;;;;1.13;0.27;;;;;;;;;;5083145;28;20031;-65
2021/01/20 02:00:48;;;;;;;0.93;0.30;;;;;;;;;;5086908;28;20023;-64
2021/01/20 02:03:13;;;;;;;0.60;0.40;;;;;;;;;;5091350;28;20118;-65
2021/01/20 02:05:38;;;;;;;1.10;0.40;;;;;;;;;;5092599;28;20023;-65
2021/01/20 02:08:05;;;;;;;0.53;0.17;;;;;;;;;;5092027;28;20035;-65
2021/01/20 02:10:30;;;;;;;1.67;0.40;;;;;;;;;;5089115;28;20019;-65
2021/01/20 02:12:55;;;;;;;1.10;0.35;;;;;;;;;;5091705;28;20012;-65
2021/01/20 02:15:27;;;;;;;0.70;0.20;;;;;;;;;;5090944;28;20489;-64
2021/01/20 02:17:55;;;;;;;0.60;0.30;;;;;;;;;;5084543;28;20030;-65
2021/01/20 02:20:29;;;;;;;1.97;0.30;;;;;;;;;;5087994;28;20035;-66
2021/01/20 02:22:56;;;;;;;1.73;0.30;;;;;;;;;;5092326;28;20016;-65
2021/01/20 02:25:30;;;;;;;0.80;0.70;;;;;;;;;;5091999;28;20031;-65
2021/01/20 02:28:08;;;;;;;1.77;0.38;;;;;;;;;;5089364;28;20089;-65
2021/01/20 02:30:35;;;;;;;2.00;0.30;;;;;;;;;;5085350;28;20048;-65
2021/01/20 02:33:00;;;;;;;1.60;0.30;;;;;;;;;;5072486;28;20036;-65
2021/01/20 02:35:26;;;;;;;0.97;0.20;;;;;;;;;;5078019;28;20016;-65
2021/01/20 02:37:52;;;;;;;1.40;0.40;;;;;;;;;;5089505;28;20513;-65
2021/01/20 02:40:18;;;;;;;0.60;0.30;;;;;;;;;;5087681;28;20107;-65
2021/01/20 02:42:45;;;;;;;3.50;0.43;;;;;;;;;;5092372;28;20035;-65
2021/01/20 02:45:12;;;;;;;0.93;0.30;;;;;;;;;;5091931;28;20024;-65
2021/01/20 02:47:37;;;;;;;1.07;0.20;;;;;;;;;;5090787;28;20621;-65
2021/01/20 02:50:04;;;;;;;0.98;0.20;;;;;;;;;;5088645;28;20028;-65
2021/01/20 02:52:48;;;;;;;1.40;0.30;;;;;;;;;;5090159;28;20020;-65
2021/01/20 02:55:15;;;;;;;0.40;0.20;;;;;;;;;;5076018;28;20506;-65
2021/01/20 02:57:40;;;;;;;0.70;0.30;;;;;;;;;;5091282;28;20016;-65
2021/01/20 03:00:06;;;;;;;0.47;0.23;;;;;;;;;;5089043;28;20372;-65
2021/01/20 03:02:33;;;;;;;0.52;0.25;;;;;;;;;;5092083;28;20027;-65
2021/01/20 03:04:59;;;;;;;0.75;0.30;;;;;;;;;;5092001;28;20020;-65
2021/01/20 03:07:25;;;;;;;1.13;0.30;;;;;;;;;;5091849;28;20120;-65
2021/01/20 03:09:50;;;;;;;0.40;0.30;;;;;;;;;;5087323;28;20030;-65
2021/01/20 03:12:15;;;;;;;2.08;0.40;;;;;;;;;;5091014;28;20016;-65
2021/01/20 03:14:42;;;;;;;0.82;0.40;;;;;;;;;;5091709;28;20024;-65
2021/01/20 03:17:08;;;;;;;0.60;0.30;;;;;;;;;;5092114;28;20020;-65
2021/01/20 03:19:33;;;;;;;0.82;0.40;;;;;;;;;;5087639;28;20032;-65
2021/01/20 03:21:58;;;;;;;0.65;0.47;;;;;;;;;;5091961;28;20028;-65
2021/01/20 03:24:23;;;;;;;0.77;0.30;;;;;;;;;;5090114;28;20066;-65
2021/01/20 03:26:49;;;;;;;0.82;0.40;;;;;;;;;;5091558;28;20077;-65
2021/01/20 03:29:14;;;;;;;0.75;0.43;;;;;;;;;;5085895;28;20089;-65
2021/01/20 03:31:39;;;;;;;1.05;0.40;;;;;;;;;;5092802;28;20020;-65
2021/01/20 03:34:04;;;;;;;0.57;0.38;;;;;;;;;;5095388;28;20065;-65
2021/01/20 03:36:29;;;;;;;0.60;0.40;;;;;;;;;;5090990;28;20021;-65
2021/01/20 03:38:55;;;;;;;0.68;0.40;;;;;;;;;;5072072;28;20038;-65
2021/01/20 03:41:20;;;;;;;0.68;0.20;;;;;;;;;;5086435;28;20024;-65
2021/01/20 03:43:45;;;;;;;0.50;0.30;;;;;;;;;;5095673;28;20041;-66
2021/01/20 03:46:11;;;;;;;1.40;0.30;;;;;;;;;;5095395;28;20034;-65
2021/01/20 03:48:36;;;;;;;1.30;0.38;;;;;;;;;;5091370;28;20054;-66
2021/01/20 03:51:01;;;;;;;0.45;0.38;;;;;;;;;;5094874;28;20366;-65
2021/01/20 03:53:26;;;;;;;0.40;0.30;;;;;;;;;;5082815;28;20410;-65
2021/01/20 03:55:52;;;;;;;0.50;0.30;;;;;;;;;;5087075;28;20012;-65
2021/01/20 03:58:17;;;;;;;0.75;0.22;;;;;;;;;;5094414;28;20020;-66
2021/01/20 04:00:42;;;;;;;0.68;0.30;;;;;;;;;;5092158;28;20073;-66
2021/01/20 04:03:07;;;;;;;1.27;0.30;;;;;;;;;;5094717;28;20074;-65
2021/01/20 04:05:32;;;;;;;0.85;0.25;;;;;;;;;;5093577;28;20024;-66
2021/01/20 04:07:58;;;;;;;0.68;0.30;;;;;;;;;;5092942;28;20024;-65
2021/01/20 04:10:23;;;;;;;1.20;0.32;;;;;;;;;;5090482;28;20028;-65
2021/01/20 04:12:48;;;;;;;1.42;0.20;;;;;;;;;;5093588;28;20059;-65
2021/01/20 04:15:14;;;;;;;0.50;0.30;;;;;;;;;;5093597;28;20112;-65
2021/01/20 04:17:39;;;;;;;0.82;0.30;;;;;;;;;;5094559;28;20425;-65
2021/01/20 04:20:05;;;;;;;0.52;0.30;;;;;;;;;;5070706;28;20015;-65
2021/01/20 04:22:30;;;;;;;0.57;0.30;;;;;;;;;;5085249;28;20020;-65
2021/01/20 04:24:55;;;;;;;0.88;0.30;;;;;;;;;;5093157;28;20523;-65
2021/01/20 04:27:20;;;;;;;1.17;0.40;;;;;;;;;;5093954;28;20040;-65
2021/01/20 04:29:46;;;;;;;0.40;0.20;;;;;;;;;;5090785;28;20064;-65
2021/01/20 04:32:11;;;;;;;0.30;0.20;;;;;;;;;;5093443;28;20458;-66
2021/01/20 04:34:36;;;;;;;0.65;0.20;;;;;;;;;;5094440;28;20016;-65
2021/01/20 04:37:02;;;;;;;0.30;0.20;;;;;;;;;;5088930;28;20107;-65
2021/01/20 04:39:27;;;;;;;0.55;0.20;;;;;;;;;;5073640;28;20070;-65
2021/01/20 04:41:52;;;;;;;0.60;0.20;;;;;;;;;;5092294;28;20070;-65
2021/01/20 04:44:18;;;;;;;0.50;0.20;;;;;;;;;;5079231;28;20025;-65
2021/01/20 04:46:44;;;;;;;0.30;0.20;;;;;;;;;;5091568;28;20016;-65
2021/01/20 04:49:14;;;;;;;0.88;0.17;;;;;;;;;;5070716;28;20020;-66
2021/01/20 04:51:40;;;;;;;0.75;0.20;;;;;;;;;;5080031;28;20016;-65
2021/01/20 04:54:07;;;;;;;0.98;0.30;;;;;;;;;;5084682;28;20083;-65
2021/01/20 04:56:33;;;;;;;1.05;0.17;;;;;;;;;;5094523;28;20016;-65
2021/01/20 04:58:58;;;;;;;1.23;0.10;;;;;;;;;;5090409;28;20518;-65
2021/01/20 05:01:24;;;;;;;0.40;0.20;;;;;;;;;;5093492;28;20028;-65
2021/01/20 05:03:50;;;;;;;0.30;0.20;;;;;;;;;;5094122;28;20020;-65
2021/01/20 05:06:16;;;;;;;1.15;0.20;;;;;;;;;;5092333;28;20024;-65
2021/01/20 05:08:41;;;;;;;0.40;0.10;;;;;;;;;;5088818;28;20049;-66
2021/01/20 05:11:06;;;;;;;0.50;0.20;;;;;;;;;;5093558;28;20423;-65
2021/01/20 05:13:32;;;;;;;0.85;0.32;;;;;;;;;;5093388;28;20016;-65
2021/01/20 05:15:57;;;;;;;0.43;0.15;;;;;;;;;;5093137;28;20062;-65
2021/01/20 05:18:23;;;;;;;0.30;0.10;;;;;;;;;;5092249;28;20016;-66
2021/01/20 05:20:48;;;;;;;0.73;0.20;;;;;;;;;;5091478;28;20016;-66
2021/01/20 05:23:13;;;;;;;0.40;0.15;;;;;;;;;;5093240;28;20032;-65
2021/01/20 05:25:40;;;;;;;0.95;0.20;;;;;;;;;;5093049;28;20016;-65
2021/01/20 05:28:25;;;;;;;0.38;0.10;;;;;;;;;;5088870;28;20116;-65
2021/01/20 05:30:51;;;;;;;0.95;0.20;;;;;;;;;;5086974;28;20016;-65
2021/01/20 05:33:17;;;;;;;0.30;0.20;;;;;;;;;;5093361;28;20020;-65
2021/01/20 05:35:43;;;;;;;0.20;0.20;;;;;;;;;;5092346;28;20026;-66
2021/01/20 05:38:10;;;;;;;0.30;0.10;;;;;;;;;;5092416;28;20065;-65
2021/01/20 05:40:35;;;;;;;0.52;0.10;;;;;;;;;;5089790;28;20039;-65
2021/01/20 05:43:01;;;;;;;0.40;0.20;;;;;;;;;;5091862;28;20482;-65
2021/01/20 05:45:26;;;;;;;0.65;0.10;;;;;;;;;;5091455;28;20020;-65
2021/01/20 05:48:04;;;;;;;0.35;0.10;;;;;;;;;;5089988;28;20027;-65
2021/01/20 05:50:30;;;;;;;0.38;0.20;;;;;;;;;;5077580;28;20020;-65
2021/01/20 05:53:09;;;;;;;0.30;0.20;;;;;;;;;;5071206;28;20489;-65
2021/01/20 05:55:36;;;;;;;0.60;0.10;;;;;;;;;;5086110;28;20020;-66
2021/01/20 05:58:01;;;;;;;0.52;0.10;;;;;;;;;;5091495;28;20052;-65
2021/01/20 06:00:27;;;;;;;0.20;0.15;;;;;;;;;;5089578;28;20059;-65
2021/01/20 06:02:53;;;;;;;0.47;0.20;;;;;;;;;;5092970;28;20070;-65
2021/01/20 06:05:18;;;;;;;0.73;0.20;;;;;;;;;;5092309;28;20028;-65
2021/01/20 06:07:44;;;;;;;0.75;0.20;;;;;;;;;;5092086;28;20116;-65
2021/01/20 06:10:09;;;;;;;0.47;0.20;;;;;;;;;;5089142;28;20393;-65
2021/01/20 06:12:35;;;;;;;0.50;0.20;;;;;;;;;;5092484;28;20016;-65
2021/01/20 06:15:00;;;;;;;0.60;0.20;;;;;;;;;;5091263;28;20115;-66
2021/01/20 06:17:29;;;;;;;0.50;0.20;;;;;;;;;;5092220;28;20031;-65
2021/01/20 06:19:58;;;;;;;0.70;0.20;;;;;;;;;;5089385;28;20504;-66
2021/01/20 06:22:23;;;;;;;1.48;0.20;;;;;;;;;;5092316;28;20035;-65
2021/01/20 06:24:50;;;;;;;0.57;0.20;;;;;;;;;;5092228;28;20019;-65
2021/01/20 06:27:34;;;;;;;0.93;0.30;;;;;;;;;;5092285;28;20077;-65
2021/01/20 06:30:25;;;;;;;0.50;0.30;;;;;;;;;;5088991;28;20051;-65
2021/01/20 06:32:51;;;;;;;0.68;0.20;;;;;;;;;;5086215;28;20036;-64
2021/01/20 06:35:17;;;;;;;2.30;0.40;;;;;;;;;;5091217;28;20016;-64
2021/01/20 06:37:47;;;;;;;0.47;0.20;;;;;;;;;;5091769;28;20024;-63
2021/01/20 06:40:19;;;;;;;1.10;0.30;;;;;;;;;;5087312;28;20114;-64
2021/01/20 06:42:45;;;;;;;0.35;0.30;;;;;;;;;;5092435;28;20020;-64
2021/01/20 06:45:16;;;;;;;0.88;0.30;;;;;;;;;;5090900;28;20151;-63
2021/01/20 06:48:08;;;;;;;0.55;0.20;;;;;;;;;;5070706;28;20518;-66
2021/01/20 06:50:53;;;;;;;1.10;0.22;;;;;;;;;;5079529;28;20036;-64
2021/01/20 06:53:18;;;;;;;0.30;0.20;;;;;;;;;;5090117;28;20027;-64
2021/01/20 06:55:44;;;;;;;0.20;0.13;;;;;;;;;;5091735;28;20024;-64
2021/01/20 06:58:18;;;;;;;1.77;0.30;;;;;;;;;;5091593;28;20159;-64
2021/01/20 07:01:04;;;;;;;0.60;0.30;;;;;;;;;;5089665;28;20027;-64
2021/01/20 07:03:42;;;;;;;0.30;0.20;;;;;;;;;;5089834;28;20093;-64
2021/01/20 07:06:40;;;;;;;0.30;0.20;;;;;;;;;;5093354;28;20032;-64
2021/01/20 07:09:06;;;;;;;4.97;0.40;;;;;;;;;;5035596;28;20032;-64
2021/01/20 07:11:31;;;;;;;0.30;0.20;;;;;;;;;;5094099;28;20020;-64
2021/01/20 07:13:57;;;;;;;0.35;0.20;;;;;;;;;;5095291;28;20027;-64
2021/01/20 07:16:23;;;;;;;1.55;0.30;;;;;;;;;;5095693;28;20047;-64
2021/01/20 07:18:51;;;;;;;0.60;0.20;;;;;;;;;;5083041;28;20008;-65
2021/01/20 07:21:16;;;;;;;0.60;0.20;;;;;;;;;;5090768;28;20012;-64
2021/01/20 07:23:42;;;;;;;0.40;0.20;;;;;;;;;;5083079;28;20095;-64
2021/01/20 07:26:09;;;;;;;1.08;0.13;;;;;;;;;;5095342;28;20130;-66
2021/01/20 07:28:35;;;;;;;0.60;0.20;;;;;;;;;;5091131;28;20044;-65
2021/01/20 07:31:04;;;;;;;0.75;0.30;;;;;;;;;;5091437;28;20024;-66
2021/01/20 07:33:30;;;;;;;0.95;0.28;;;;;;;;;;5092134;28;20487;-65
2021/01/20 07:35:56;;;;;;;0.30;0.20;;;;;;;;;;5090057;28;20378;-66
2021/01/20 07:38:30;;;;;;;0.40;0.20;;;;;;;;;;5089057;28;20069;-65
2021/01/20 07:40:56;;;;;;;0.85;0.20;;;;;;;;;;5087436;28;20028;-66
2021/01/20 07:43:22;;;;;;;0.75;0.30;;;;;;;;;;5093367;28;20030;-66
2021/01/20 07:45:47;;;;;;;1.38;0.32;;;;;;;;;;5095487;28;20024;-66
2021/01/20 07:48:13;;;;;;;0.63;0.30;;;;;;;;;;5089687;28;20364;-66
2021/01/20 07:50:40;;;;;;;1.00;0.25;;;;;;;;;;5072326;28;20502;-65
2021/01/20 07:53:05;;;;;;;1.02;0.30;;;;;;;;;;5090657;28;20423;-65
2021/01/20 07:55:31;;;;;;;0.60;0.30;;;;;;;;;;5093150;28;20075;-66
2021/01/20 07:57:57;;;;;;;1.20;0.30;;;;;;;;;;5094140;28;20016;-65
2021/01/20 08:00:22;;;;;;;0.68;0.20;;;;;;;;;;5083411;28;20016;-65
2021/01/20 08:02:47;;;;;;;0.43;0.30;;;;;;;;;;5091620;28;20053;-66
2021/01/20 08:05:13;;;;;;;0.70;0.40;;;;;;;;;;5090852;28;20470;-67
2021/01/20 08:07:38;;;;;;;0.22;0.20;;;;;;;;;;5088012;28;20026;-65
2021/01/20 08:10:04;;;;;;;0.75;0.40;;;;;;;;;;5086213;28;20103;-65
2021/01/20 08:12:30;;;;;;;0.90;0.20;;;;;;;;;;5088748;28;20028;-66
2021/01/20 08:14:56;;;;;;;0.75;0.30;;;;;;;;;;5091881;28;20070;-65
2021/01/20 08:17:21;;;;;;;0.82;0.20;;;;;;;;;;5090056;28;20042;-64
2021/01/20 08:19:48;;;;;;;0.60;0.30;;;;;;;;;;5087554;28;20020;-65
2021/01/20 08:22:14;;;;;;;0.80;0.30;;;;;;;;;;5089930;28;20030;-63
2021/01/20 08:24:47;;;;;;;0.40;0.30;;;;;;;;;;5087931;28;20024;-63
2021/01/20 08:27:12;;;;;;;0.85;0.32;;;;;;;;;;5085322;28;20429;-63
2021/01/20 08:29:47;;;;;;;0.80;0.30;;;;;;;;;;5080409;28;20066;-64
2021/01/20 08:32:12;;;;;;;;;;;;;;;;;;5085753;28;20016;-64
2021/01/20 08:34:40;;;;;;;1.02;0.38;;;;;;;;;;5086546;28;19965;-64
2021/01/20 08:37:08;;;;;;;0.82;0.35;;;;;;;;;;5086829;28;20020;-63
2021/01/20 08:39:37;;;;;;;0.60;0.30;;;;;;;;;;5082811;28;20035;-63
2021/01/20 08:42:21;;;;;;;1.58;0.50;;;;;;;;;;5085155;28;20089;-64
2021/01/20 08:45:00;;;;;;;0.57;0.40;;;;;;;;;;5082678;28;20020;-64
2021/01/20 08:47:25;;;;;;;0.40;0.40;;;;;;;;;;5093146;28;20176;-64
2021/01/20 08:49:53;;;;;;;1.08;0.50;;;;;;;;;;5090651;28;20055;-64
2021/01/20 08:52:18;;;;;;;0.75;0.32;;;;;;;;;;5093606;28;20043;-64
2021/01/20 08:54:50;;;;;;;0.95;0.40;;;;;;;;;;5088432;28;20021;-64
2021/01/20 08:57:18;;;;;;;0.95;0.40;;;;;;;;;;5078151;28;20020;-64
2021/01/20 08:59:54;;;;;;;0.57;0.30;;;;;;;;;;5090057;28;20390;-64
2021/01/20 09:02:19;;;;;;;0.98;0.30;;;;;;;;;;5091565;28;20085;-64
2021/01/20 09:04:45;;;;;;;0.55;0.30;;;;;;;;;;5092014;28;20090;-64
2021/01/20 09:07:11;;;;;;;2.20;0.43;;;;;;;;;;5091808;28;20020;-64
2021/01/20 09:09:36;;;;;;;2.55;0.38;;;;;;;;;;5086806;28;20209;-64
2021/01/20 09:12:04;;;;;;;0.93;0.40;;;;;;;;;;5092175;28;20146;-64
2021/01/20 09:14:30;;;;;;;0.75;0.30;;;;;;;;;;5091407;28;20020;-64
2021/01/20 09:16:55;;;;;;;1.00;0.40;;;;;;;;;;5091636;28;20026;-64
2021/01/20 09:19:23;;;;;;;0.70;0.43;;;;;;;;;;5088592;28;20024;-64
2021/01/20 09:21:48;;;;;;;0.50;0.30;;;;;;;;;;5092952;28;20538;-64
2021/01/20 09:24:14;;;;;;;0.95;0.47;;;;;;;;;;5091408;28;20111;-64
2021/01/20 09:26:39;;;;;;;1.23;0.50;;;;;;;;;;5092421;28;20032;-64
2021/01/20 09:29:04;;;;;;;0.70;0.60;;;;;;;;;;5086336;28;20020;-64
2021/01/20 09:31:29;;;;;;;0.82;0.30;;;;;;;;;;5091327;28;20026;-64
2021/01/20 09:33:54;;;;;;;1.85;0.88;;;;;;;;;;5089681;28;20016;-64
2021/01/20 09:36:20;;;;;;;1.75;0.70;;;;;;;;;;5091402;28;20016;-64
2021/01/20 09:38:45;;;;;;;1.23;0.50;;;;;;;;;;5089039;28;20552;-63
2021/01/20 09:41:10;;;;;;;1.08;0.60;;;;;;;;;;5090460;28;20457;-64
2021/01/20 09:43:35;;;;;;;0.82;0.52;;;;;;;;;;5091677;28;20020;-64
2021/01/20 09:46:00;;;;;;;3.05;0.30;;;;;;;;;;5092578;28;20028;-63
2021/01/20 09:48:26;;;;;;;0.73;0.40;;;;;;;;;;5091537;28;20383;-64
2021/01/20 09:50:51;;;;;;;0.70;0.32;;;;;;;;;;5089520;28;20122;-64
2021/01/20 09:53:16;;;;;;;1.20;0.45;;;;;;;;;;5085146;28;20016;-63
2021/01/20 09:55:41;;;;;;;0.60;0.50;;;;;;;;;;5091328;28;20008;-64
2021/01/20 09:58:07;;;;;;;1.15;0.50;;;;;;;;;;5091433;28;20729;-64
2021/01/20 10:00:34;;;;;;;1.02;0.60;;;;;;;;;;5088933;28;20106;-64
2021/01/20 10:03:01;;;;;;;2.78;0.60;;;;;;;;;;5086704;28;20569;-64
2021/01/20 10:05:26;;;;;;;1.80;0.57;;;;;;;;;;5092659;28;20078;-63
2021/01/20 10:07:51;;;;;;;0.88;0.50;;;;;;;;;;5092228;28;20019;-64
2021/01/20 10:10:16;;;;;;;1.85;0.47;;;;;;;;;;5089466;28;20488;-64
2021/01/20 10:12:42;;;;;;;1.83;0.40;;;;;;;;;;5085467;28;20020;-65
2021/01/20 10:15:08;;;;;;;0.60;0.43;;;;;;;;;;5092470;28;20019;-64
2021/01/20 10:17:33;;;;;;;0.93;0.60;;;;;;;;;;5091606;28;20074;-64
2021/01/20 10:19:58;;;;;;;1.17;0.60;;;;;;;;;;5084874;28;20016;-65
2021/01/20 10:22:24;;;;;;;0.90;0.50;;;;;;;;;;5075557;28;20051;-64
2021/01/20 10:24:49;;;;;;;0.85;0.47;;;;;;;;;;5092336;28;20055;-65
2021/01/20 10:27:15;;;;;;;0.57;0.43;;;;;;;;;;5090587;28;20083;-65
2021/01/20 10:29:40;;;;;;;1.13;0.60;;;;;;;;;;5088881;28;20020;-64
2021/01/20 10:32:05;;;;;;;0.98;0.60;;;;;;;;;;5079462;28;20101;-65
2021/01/20 10:34:31;;;;;;;0.95;0.50;;;;;;;;;;5090182;28;20085;-65
2021/01/20 10:36:56;;;;;;;0.80;0.75;;;;;;;;;;5091782;28;20016;-65
2021/01/20 10:39:22;;;;;;;0.60;0.40;;;;;;;;;;5085927;28;20044;-66
2021/01/20 10:41:48;;;;;;;1.55;0.77;;;;;;;;;;5091601;28;20103;-66
2021/01/20 10:44:13;;;;;;;1.85;0.40;;;;;;;;;;5092311;28;20047;-66
2021/01/20 10:46:38;;;;;;;0.40;0.32;;;;;;;;;;5091735;28;20028;-65
2021/01/20 10:49:03;;;;;;;0.73;0.47;;;;;;;;;;5082918;28;20036;-66
2021/01/20 10:51:33;;;;;;;2.28;0.45;;;;;;;;;;5088578;28;20012;-65
2021/01/20 10:53:59;;;;;;;0.90;0.40;;;;;;;;;;5091028;28;20020;-65
2021/01/20 10:56:24;;;;;;;0.93;0.45;;;;;;;;;;5090857;28;20027;-66
2021/01/20 10:58:49;;;;;;;0.73;0.43;;;;;;;;;;5088832;28;20077;-66
2021/01/20 11:01:15;;;;;;;0.73;0.40;;;;;;;;;;5089578;28;20061;-65
2021/01/20 11:03:40;;;;;;;0.43;0.30;;;;;;;;;;5091767;28;20107;-65
2021/01/20 11:06:06;;;;;;;1.33;0.40;;;;;;;;;;5091248;28;20024;-66
2021/01/20 11:08:31;;;;;;;2.17;0.40;;;;;;;;;;5089551;28;20463;-66
2021/01/20 11:10:56;;;;;;;0.77;0.40;;;;;;;;;;5089237;28;20012;-66
2021/01/20 11:13:21;;;;;;;1.30;0.50;;;;;;;;;;5072342;28;20425;-65
2021/01/20 11:15:47;;;;;;;0.88;0.55;;;;;;;;;;5090909;28;20356;-66
2021/01/20 11:18:13;;;;;;;0.50;0.30;;;;;;;;;;5089881;28;20028;-66
2021/01/20 11:20:39;;;;;;;1.75;0.40;;;;;;;;;;5079650;28;20029;-66
2021/01/20 11:23:05;;;;;;;0.75;0.30;;;;;;;;;;5085291;28;20034;-66
2021/01/20 11:25:32;;;;;;;1.67;0.70;;;;;;;;;;5090576;28;20459;-66
2021/01/20 11:27:57;;;;;;;1.00;0.55;;;;;;;;;;5091093;28;20097;-66
2021/01/20 11:30:23;;;;;;;1.60;0.35;;;;;;;;;;5080024;28;20379;-65
2021/01/20 11:32:48;;;;;;;0.95;0.40;;;;;;;;;;5076816;28;20048;-66
2021/01/20 11:35:13;;;;;;;1.65;0.55;;;;;;;;;;5091094;28;20022;-66
2021/01/20 11:37:39;;;;;;;0.90;0.68;;;;;;;;;;5085782;28;20039;-67
2021/01/20 11:40:05;;;;;;;0.95;0.47;;;;;;;;;;5086693;28;20031;-67
2021/01/20 11:42:30;;;;;;;1.67;0.50;;;;;;;;;;5091007;28;20028;-66
2021/01/20 11:44:56;;;;;;;1.17;0.47;;;;;;;;;;5091183;28;20359;-66
2021/01/20 11:47:21;;;;;;;0.82;0.40;;;;;;;;;;5090792;28;20031;-66
2021/01/20 11:49:46;;;;;;;1.17;0.45;;;;;;;;;;5086655;28;20039;-66
2021/01/20 11:52:11;;;;;;;0.60;0.40;;;;;;;;;;5092427;28;20016;-66
2021/01/20 11:54:37;;;;;;;0.90;0.63;;;;;;;;;;5091842;28;20135;-66
2021/01/20 11:57:02;;;;;;;0.77;0.35;;;;;;;;;;5095001;28;20008;-66
2021/01/20 11:59:27;;;;;;;1.58;0.40;;;;;;;;;;5090219;28;20424;-67
2021/01/20 12:01:52;;;;;;;1.35;0.50;;;;;;;;;;5092906;28;20020;-66
2021/01/20 12:04:17;;;;;;;1.02;0.40;;;;;;;;;;5092462;28;20024;-65
2021/01/20 12:06:43;;;;;;;0.77;0.40;;;;;;;;;;5093518;28;20430;-66
2021/01/20 12:09:08;;;;;;;0.70;0.30;;;;;;;;;;5088910;28;20032;-65
2021/01/20 12:11:33;;;;;;;0.70;0.40;;;;;;;;;;5093090;28;20016;-66
2021/01/20 12:13:58;;;;;;;0.57;0.32;;;;;;;;;;5093213;28;20494;-66
2021/01/20 12:16:24;;;;;;;1.13;0.40;;;;;;;;;;5094158;28;20378;-65
2021/01/20 12:18:49;;;;;;;0.80;0.40;;;;;;;;;;5090869;28;20034;-65
2021/01/20 12:21:15;;;;;;;0.80;0.35;;;;;;;;;;5092515;28;20028;-66
2021/01/20 12:23:40;;;;;;;1.02;0.30;;;;;;;;;;5093997;28;20028;-65
2021/01/20 12:26:05;;;;;;;1.05;0.32;;;;;;;;;;5094512;28;20012;-67
2021/01/20 12:28:31;;;;;;;1.95;0.50;;;;;;;;;;5087503;28;20056;-68
2021/01/20 12:30:59;;;;;;;1.52;0.30;;;;;;;;;;5091181;28;20012;-67
2021/01/20 12:33:24;;;;;;;1.20;0.30;;;;;;;;;;5087131;28;20016;-67
2021/01/20 12:35:49;;;;;;;1.10;0.30;;;;;;;;;;5090814;28;20495;-66
2021/01/20 12:38:14;;;;;;;2.75;0.40;;;;;;;;;;5084215;28;20024;-67
2021/01/20 12:40:40;;;;;;;0.63;0.30;;;;;;;;;;5089407;28;20031;-67
2021/01/20 12:43:05;;;;;;;0.70;0.38;;;;;;;;;;5093641;28;20023;-65
2021/01/20 12:45:30;;;;;;;1.65;0.30;;;;;;;;;;5092439;28;20108;-67
2021/01/20 12:47:56;;;;;;;0.88;0.30;;;;;;;;;;5093757;28;20047;-67
2021/01/20 12:50:22;;;;;;;1.00;0.22;;;;;;;;;;5090216;28;20016;-67
2021/01/20 12:52:48;;;;;;;1.38;0.30;;;;;;;;;;5086979;28;20099;-67
2021/01/20 12:55:13;;;;;;;1.83;0.30;;;;;;;;;;5090861;28;20462;-67
2021/01/20 12:57:38;;;;;;;0.85;0.30;;;;;;;;;;5091151;28;20073;-66
2021/01/20 13:00:04;;;;;;;0.82;0.43;;;;;;;;;;5090416;28;20036;-67
2021/01/20 13:02:29;;;;;;;2.05;0.30;;;;;;;;;;5093422;28;20016;-67
2021/01/20 13:04:55;;;;;;;0.98;0.40;;;;;;;;;;5093142;28;20094;-66
2021/01/20 13:07:20;;;;;;;1.02;0.40;;;;;;;;;;5092906;28;20028;-66
2021/01/20 13:09:45;;;;;;;1.38;0.30;;;;;;;;;;5089136;28;20016;-66
2021/01/20 13:12:10;;;;;;;0.70;0.20;;;;;;;;;;5073839;28;20417;-68
2021/01/20 13:14:36;;;;;;;0.30;0.20;;;;;;;;;;5091472;28;21311;-66
2021/01/20 13:17:01;;;;;;;0.68;0.30;;;;;;;;;;5090419;28;20388;-66
2021/01/20 13:19:26;;;;;;;0.47;0.20;;;;;;;;;;5089695;28;20057;-67
2021/01/20 13:21:55;;;;;;;1.38;0.20;;;;;;;;;;5092020;28;20593;-66
2021/01/20 13:24:21;;;;;;;0.57;0.22;;;;;;;;;;5091054;28;20016;-67
2021/01/20 13:26:46;;;;;;;0.30;0.20;;;;;;;;;;5093360;28;20144;-67
2021/01/20 13:29:11;;;;;;;0.85;0.20;;;;;;;;;;5081104;28;20111;-67
2021/01/20 13:31:37;;;;;;;0.40;0.20;;;;;;;;;;5090778;28;20031;-66
2021/01/20 13:34:02;;;;;;;0.43;0.30;;;;;;;;;;5083761;28;20029;-66
2021/01/20 13:36:27;;;;;;;2.10;0.40;;;;;;;;;;5092300;28;20379;-67
2021/01/20 13:38:52;;;;;;;0.50;0.40;;;;;;;;;;5087862;28;20028;-67
2021/01/20 13:41:18;;;;;;;0.82;0.20;;;;;;;;;;5091556;28;20386;-66
2021/01/20 13:43:43;;;;;;;1.00;0.40;;;;;;;;;;5091635;28;20451;-66
2021/01/20 13:46:08;;;;;;;1.77;0.50;;;;;;;;;;5092175;28;20024;-67
2021/01/20 13:48:33;;;;;;;0.60;0.30;;;;;;;;;;5089474;28;20039;-68
2021/01/20 13:50:59;;;;;;;0.60;0.30;;;;;;;;;;5092032;28;20020;-66
2021/01/20 13:53:25;;;;;;;0.75;0.30;;;;;;;;;;5103080;28;20024;-67
2021/01/20 13:55:50;;;;;;;2.28;0.30;;;;;;;;;;5087362;28;20030;-67
2021/01/20 13:58:15;;;;;;;1.63;0.32;;;;;;;;;;5091047;28;20028;-66
2021/01/20 14:00:41;;;;;;;1.00;0.40;;;;;;;;;;5089673;28;20024;-67
2021/01/20 14:03:06;;;;;;;2.08;0.35;;;;;;;;;;5092352;28;20051;-67
2021/01/20 14:05:31;;;;;;;1.35;0.30;;;;;;;;;;5091586;28;20457;-67
2021/01/20 14:07:56;;;;;;;1.90;0.30;;;;;;;;;;5090070;28;20509;-66
2021/01/20 14:10:22;;;;;;;1.05;0.40;;;;;;;;;;5079832;28;20065;-66
2021/01/20 14:12:47;;;;;;;1.35;0.38;;;;;;;;;;5091014;28;20027;-66
2021/01/20 14:15:12;;;;;;;0.63;0.35;;;;;;;;;;5091694;28;20107;-66
2021/01/20 14:17:37;;;;;;;1.00;0.35;;;;;;;;;;5088041;28;21273;-66
2021/01/20 14:20:03;;;;;;;0.90;0.30;;;;;;;;;;5088523;28;20036;-66
2021/01/20 14:22:31;;;;;;;2.15;0.40;;;;;;;;;;5087069;28;20017;-66
2021/01/20 14:25:00;;;;;;;1.90;0.40;;;;;;;;;;5091795;28;20030;-65
2021/01/20 14:27:28;;;;;;;0.63;0.30;;;;;;;;;;5086593;28;20747;-64
2021/01/20 14:29:53;;;;;;;3.95;0.47;;;;;;;;;;5083028;28;20072;-64
2021/01/20 14:32:19;;;;;;;0.95;0.32;;;;;;;;;;5090243;28;20096;-64
2021/01/20 14:34:44;;;;;;;1.77;0.30;;;;;;;;;;5088188;28;20107;-64
2021/01/20 14:37:09;;;;;;;1.83;0.30;;;;;;;;;;5091449;28;20031;-64
2021/01/20 14:39:34;;;;;;;1.05;0.30;;;;;;;;;;5087850;28;20031;-64